createdAt,value
2023-01-08T00:00:38.052Z,10.60
2023-01-08T00:03:06.689Z,10.50
2023-01-08T00:05:36.014Z,10.60
2023-01-08T00:08:04.422Z,10.60
2023-01-08T00:10:32.846Z,10.60
2023-01-08T00:13:01.281Z,10.60
2023-01-08T00:15:30.267Z,10.70
2023-01-08T00:18:00.060Z,10.70
2023-01-08T00:20:29.185Z,10.80
2023-01-08T00:22:57.545Z,10.80
2023-01-08T00:25:25.945Z,10.80
2023-01-08T00:27:54.415Z,10.80
2023-01-08T00:30:22.769Z,10.70
2023-01-08T00:32:51.153Z,10.70
2023-01-08T00:35:20.930Z,10.70
2023-01-08T00:37:50.161Z,10.80
2023-01-08T00:40:18.801Z,10.80
2023-01-08T00:42:47.171Z,10.80
2023-01-08T00:45:15.725Z,10.80
2023-01-08T00:47:44.150Z,10.70
2023-01-08T00:50:12.575Z,10.80
2023-01-08T00:52:42.364Z,10.80
2023-01-08T00:55:10.828Z,10.80
2023-01-08T00:57:40.068Z,10.80
2023-01-08T01:00:10.013Z,10.80
2023-01-08T01:02:38.759Z,10.80
2023-01-08T01:05:07.768Z,10.80
2023-01-08T01:07:36.109Z,10.80
2023-01-08T01:10:06.317Z,10.80
2023-01-08T01:12:34.727Z,10.80
2023-01-08T01:15:03.098Z,10.80
2023-01-08T01:17:31.485Z,10.80
2023-01-08T01:19:59.861Z,10.80
2023-01-08T01:22:28.525Z,10.80
2023-01-08T01:24:56.963Z,10.80
2023-01-08T01:27:27.652Z,10.90
2023-01-08T01:29:56.059Z,10.80
2023-01-08T01:32:24.504Z,10.80
2023-01-08T01:34:52.891Z,10.80
2023-01-08T01:37:21.236Z,10.80
2023-01-08T01:39:49.618Z,10.80
2023-01-08T01:42:33.295Z,10.70
2023-01-08T01:45:03.306Z,10.70
2023-01-08T01:47:33.834Z,10.70
2023-01-08T01:50:05.500Z,10.70
2023-01-08T01:52:36.235Z,10.70
2023-01-08T01:55:05.166Z,10.70
2023-01-08T01:57:34.327Z,10.60
2023-01-08T02:00:05.735Z,10.50
2023-01-08T02:02:34.299Z,10.50
2023-01-08T02:05:03.171Z,10.60
2023-01-08T02:07:34.687Z,10.60
2023-01-08T02:10:07.948Z,10.50
2023-01-08T02:12:39.121Z,10.60
2023-01-08T02:15:13.858Z,10.60
2023-01-08T02:17:49.407Z,10.60
2023-01-08T02:20:19.995Z,10.60
2023-01-08T02:22:58.697Z,10.70
2023-01-08T02:25:32.122Z,10.70
2023-01-08T02:28:03.508Z,10.70
2023-01-08T02:30:32.182Z,10.70
2023-01-08T02:33:00.600Z,10.70
2023-01-08T02:35:35.146Z,10.60
2023-01-08T02:38:03.599Z,10.60
2023-01-08T02:40:34.895Z,10.60
2023-01-08T02:43:10.158Z,10.60
2023-01-08T02:45:41.857Z,10.50
2023-01-08T02:48:12.730Z,10.50
2023-01-08T02:50:42.815Z,10.50
2023-01-08T02:53:13.255Z,10.50
2023-01-08T02:55:43.184Z,10.50
2023-01-08T02:58:13.293Z,10.50
2023-01-08T03:00:42.373Z,10.60
2023-01-08T03:03:12.680Z,10.60
2023-01-08T03:05:42.456Z,10.60
2023-01-08T03:08:11.708Z,10.60
2023-01-08T03:10:41.217Z,10.60
2023-01-08T03:13:12.502Z,10.70
2023-01-08T03:15:46.260Z,10.70
2023-01-08T03:18:16.776Z,10.70
2023-01-08T03:20:46.092Z,10.80
2023-01-08T03:23:15.855Z,10.70
2023-01-08T03:25:47.151Z,10.80
2023-01-08T03:28:18.600Z,10.80
2023-01-08T03:30:48.717Z,10.80
2023-01-08T03:33:18.064Z,10.90
2023-01-08T03:35:48.563Z,10.80
2023-01-08T03:38:18.925Z,10.80
2023-01-08T03:40:49.290Z,10.80
2023-01-08T03:43:17.744Z,10.90
2023-01-08T03:45:50.114Z,10.90
2023-01-08T03:48:21.405Z,11.00
2023-01-08T03:50:49.797Z,11.00
2023-01-08T03:53:18.160Z,11.00
2023-01-08T03:55:46.541Z,11.00
2023-01-08T03:58:14.935Z,10.90
2023-01-08T04:00:43.331Z,10.90
2023-01-08T04:03:11.719Z,10.90
2023-01-08T04:05:41.523Z,10.90
2023-01-08T04:08:09.873Z,11.00
2023-01-08T04:10:38.233Z,11.00
2023-01-08T04:13:06.659Z,11.10
2023-01-08T04:15:35.056Z,11.10
2023-01-08T04:18:03.393Z,11.00
2023-01-08T04:20:31.747Z,11.00
2023-01-08T04:23:01.414Z,11.00
2023-01-08T04:25:29.781Z,11.00
2023-01-08T04:27:58.179Z,10.90
2023-01-08T04:30:26.590Z,10.90
2023-01-08T04:32:54.927Z,10.90
2023-01-08T04:35:23.353Z,10.90
2023-01-08T04:37:51.741Z,10.90
2023-01-08T04:40:21.515Z,10.90
2023-01-08T04:42:49.993Z,11.00
2023-01-08T04:45:18.578Z,11.00
2023-01-08T04:47:47.099Z,10.90
2023-01-08T04:50:15.513Z,10.90
2023-01-08T04:52:43.872Z,10.90
2023-01-08T04:55:12.249Z,10.90
2023-01-08T04:57:42.032Z,11.00
2023-01-08T05:00:10.911Z,11.10
2023-01-08T05:02:39.768Z,11.10
2023-01-08T05:05:09.063Z,11.10
2023-01-08T05:07:37.460Z,11.00
2023-01-08T05:10:06.311Z,10.90
2023-01-08T05:12:34.599Z,10.80
2023-01-08T05:15:04.598Z,10.90
2023-01-08T05:17:32.959Z,11.00
2023-01-08T05:20:01.366Z,11.00
2023-01-08T05:22:29.660Z,10.90
2023-01-08T05:24:58.010Z,10.90
2023-01-08T05:27:26.374Z,10.90
2023-01-08T05:29:54.762Z,10.90
2023-01-08T05:32:24.561Z,10.90
2023-01-08T05:34:52.892Z,10.90
2023-01-08T05:37:21.222Z,10.80
2023-01-08T05:39:49.674Z,10.90
2023-01-08T05:42:17.968Z,10.80
2023-01-08T05:44:46.263Z,10.90
2023-01-08T05:47:14.612Z,10.90
2023-01-08T05:49:44.359Z,10.90
2023-01-08T05:52:12.723Z,10.90
2023-01-08T05:54:41.159Z,10.90
2023-01-08T05:57:09.485Z,11.00
2023-01-08T05:59:37.872Z,11.10
2023-01-08T06:02:06.234Z,11.10
2023-01-08T06:04:34.733Z,11.20
2023-01-08T06:07:04.513Z,11.20
2023-01-08T06:09:32.818Z,11.20
2023-01-08T06:12:01.264Z,11.20
2023-01-08T06:14:29.670Z,11.20
2023-01-08T06:16:58.028Z,11.10
2023-01-08T06:19:26.472Z,11.10
2023-01-08T06:21:54.830Z,11.10
2023-01-08T06:24:24.588Z,11.00
2023-01-08T06:26:52.999Z,11.00
2023-01-08T06:29:21.453Z,11.00
2023-01-08T06:31:49.768Z,10.90
2023-01-08T06:34:18.265Z,11.00
2023-01-08T06:36:46.690Z,11.00
2023-01-08T06:39:15.081Z,11.00
2023-01-08T06:41:45.360Z,11.00
2023-01-08T06:44:13.847Z,11.00
2023-01-08T06:46:42.209Z,11.10
2023-01-08T06:49:10.738Z,11.10
2023-01-08T06:51:39.008Z,11.10
2023-01-08T06:54:07.438Z,11.20
2023-01-08T06:56:52.271Z,11.20
2023-01-08T06:59:22.949Z,11.20
2023-01-08T07:01:51.818Z,11.20
2023-01-08T07:04:20.768Z,11.20
2023-01-08T07:06:49.104Z,11.20
2023-01-08T07:09:17.446Z,11.20
2023-01-08T07:11:45.969Z,11.20
2023-01-08T07:14:14.337Z,11.10
2023-01-08T07:16:44.128Z,11.10
2023-01-08T07:19:12.843Z,11.10
2023-01-08T07:21:41.203Z,11.00
2023-01-08T07:24:09.738Z,11.00
2023-01-08T07:26:39.696Z,11.00
2023-01-08T07:29:08.059Z,11.00
2023-01-08T07:31:36.547Z,11.00
2023-01-08T07:34:06.584Z,10.90
2023-01-08T07:36:34.997Z,10.90
2023-01-08T07:39:03.387Z,10.80
2023-01-08T07:41:31.813Z,10.80
2023-01-08T07:44:00.149Z,10.90
2023-01-08T07:46:28.547Z,10.80
2023-01-08T07:48:57.249Z,10.90
2023-01-08T07:51:26.913Z,10.90
2023-01-08T07:53:56.459Z,10.90
2023-01-08T07:56:24.964Z,11.00
2023-01-08T07:58:53.540Z,11.00
2023-01-08T08:01:22.153Z,11.00
2023-01-08T08:03:50.644Z,11.10
2023-01-08T08:06:19.198Z,11.10
2023-01-08T08:08:48.974Z,11.20
2023-01-08T08:11:17.366Z,11.30
2023-01-08T08:13:47.526Z,11.40
2023-01-08T08:16:15.962Z,11.50
2023-01-08T08:18:44.362Z,11.60
2023-01-08T08:21:12.674Z,11.70
2023-01-08T08:23:41.026Z,11.90
2023-01-08T08:26:10.972Z,11.90
2023-01-08T08:28:39.356Z,12.00
2023-01-08T08:31:07.800Z,12.10
2023-01-08T08:33:36.212Z,12.30
2023-01-08T08:36:04.743Z,12.40
2023-01-08T08:38:33.038Z,12.50
2023-01-08T08:41:01.466Z,12.60
2023-01-08T08:43:31.237Z,12.60
2023-01-08T08:45:59.628Z,12.70
2023-01-08T08:48:28.167Z,12.70
2023-01-08T08:50:56.562Z,12.70
2023-01-08T08:53:26.981Z,12.80
2023-01-08T08:55:56.053Z,12.80
2023-01-08T08:58:24.406Z,12.80
2023-01-08T09:00:54.124Z,12.80
2023-01-08T09:03:23.384Z,12.90
2023-01-08T09:05:51.811Z,13.00
2023-01-08T09:08:20.250Z,12.90
2023-01-08T09:10:48.653Z,13.00
2023-01-08T09:13:17.042Z,13.10
2023-01-08T09:15:45.467Z,13.20
2023-01-08T09:18:16.132Z,13.20
2023-01-08T09:20:44.531Z,13.30
2023-01-08T09:23:12.880Z,13.30
2023-01-08T09:25:41.278Z,13.40
2023-01-08T09:28:12.177Z,13.40
2023-01-08T09:30:40.832Z,13.40
2023-01-08T09:33:09.228Z,13.40
2023-01-08T09:35:38.909Z,13.40
2023-01-08T09:38:07.192Z,13.50
2023-01-08T09:40:39.067Z,13.50
2023-01-08T09:43:11.404Z,13.50
2023-01-08T09:45:40.791Z,13.50
2023-01-08T09:48:17.009Z,13.60
2023-01-08T09:50:47.954Z,13.60
2023-01-08T09:53:17.840Z,13.70
2023-01-08T09:55:48.985Z,13.70
2023-01-08T09:58:24.618Z,13.80
2023-01-08T10:00:53.364Z,13.80
2023-01-08T10:03:22.870Z,14.00
2023-01-08T10:05:53.981Z,14.00
2023-01-08T10:08:22.342Z,14.00
2023-01-08T10:10:50.716Z,14.10
2023-01-08T10:13:19.111Z,14.10
2023-01-08T10:15:47.756Z,14.20
2023-01-08T10:18:18.914Z,14.30
2023-01-08T10:20:47.279Z,14.30
2023-01-08T10:23:18.191Z,14.40
2023-01-08T10:25:51.992Z,14.40
2023-01-08T10:28:21.416Z,14.50
2023-01-08T10:30:49.987Z,14.60
2023-01-08T10:33:20.206Z,14.60
2023-01-08T10:35:53.652Z,14.60
2023-01-08T10:38:27.875Z,14.70
2023-01-08T10:40:56.702Z,14.70
2023-01-08T10:43:27.456Z,14.80
2023-01-08T10:45:57.809Z,14.80
2023-01-08T10:48:29.093Z,15.20
2023-01-08T10:51:06.962Z,15.20
2023-01-08T10:53:36.868Z,15.20
2023-01-08T10:56:06.009Z,15.10
2023-01-08T10:58:42.339Z,15.10
2023-01-08T11:01:12.362Z,15.30
2023-01-08T11:03:41.592Z,15.50
2023-01-08T11:06:13.915Z,15.50
2023-01-08T11:08:51.655Z,15.60
2023-01-08T11:11:20.540Z,15.70
2023-01-08T11:13:55.191Z,15.60
2023-01-08T11:16:24.621Z,15.50
2023-01-08T11:18:53.178Z,15.40
2023-01-08T11:21:23.647Z,15.30
2023-01-08T11:24:03.589Z,15.30
2023-01-08T11:26:32.987Z,15.20
2023-01-08T11:29:04.202Z,15.20
2023-01-08T11:31:35.463Z,15.30
2023-01-08T11:34:07.155Z,15.30
2023-01-08T11:36:37.043Z,15.30
2023-01-08T11:39:10.073Z,15.40
2023-01-08T11:41:45.732Z,15.40
2023-01-08T11:44:19.543Z,15.50
2023-01-08T11:46:52.323Z,15.70
2023-01-08T11:49:29.145Z,15.60
2023-01-08T11:52:05.960Z,15.60
2023-01-08T11:54:43.696Z,15.50
2023-01-08T11:57:17.170Z,15.50
2023-01-08T11:59:53.117Z,15.50
2023-01-08T12:02:23.783Z,15.50
2023-01-08T12:05:00.431Z,15.60
2023-01-08T12:07:32.966Z,15.70
2023-01-08T12:10:06.429Z,15.70
2023-01-08T12:12:42.329Z,15.60
2023-01-08T12:15:17.348Z,15.70
2023-01-08T12:17:55.655Z,15.70
2023-01-08T12:20:28.864Z,15.90
2023-01-08T12:23:00.841Z,15.90
2023-01-08T12:25:45.656Z,15.90
2023-01-08T12:28:18.735Z,15.80
2023-01-08T12:30:56.306Z,15.80
2023-01-08T12:33:29.935Z,15.80
2023-01-08T12:36:00.185Z,15.70
2023-01-08T12:38:31.066Z,15.70
2023-01-08T12:41:02.853Z,15.70
2023-01-08T12:43:33.091Z,15.80
2023-01-08T12:46:03.441Z,15.70
2023-01-08T12:48:34.917Z,15.80
2023-01-08T12:51:05.432Z,15.80
2023-01-08T12:53:41.418Z,15.70
2023-01-08T12:56:14.149Z,15.70
2023-01-08T12:58:50.347Z,15.70
2023-01-08T13:01:26.704Z,15.60
2023-01-08T13:03:56.554Z,15.60
2023-01-08T13:06:25.035Z,15.60
2023-01-08T13:08:54.842Z,15.60
2023-01-08T13:11:29.402Z,15.60
2023-01-08T13:14:01.749Z,15.50
2023-01-08T13:16:31.871Z,15.60
2023-01-08T13:19:01.412Z,15.60
2023-01-08T13:21:34.561Z,15.80
2023-01-08T13:24:04.553Z,15.80
2023-01-08T13:26:35.443Z,15.70
2023-01-08T13:29:24.577Z,15.70
2023-01-08T13:31:53.130Z,15.70
2023-01-08T13:34:23.140Z,15.60
2023-01-08T13:36:58.053Z,15.70
2023-01-08T13:39:32.516Z,15.60
2023-01-08T13:42:04.598Z,15.40
2023-01-08T13:44:34.588Z,15.40
2023-01-08T13:47:03.763Z,15.40
2023-01-08T13:49:35.358Z,15.40
2023-01-08T13:52:03.998Z,15.40
2023-01-08T13:54:38.121Z,15.20
2023-01-08T13:57:13.223Z,15.10
2023-01-08T13:59:42.702Z,15.10
2023-01-08T14:02:25.419Z,15.10
2023-01-08T14:04:54.206Z,15.20
2023-01-08T14:07:23.785Z,15.20
2023-01-08T14:09:52.272Z,15.20
2023-01-08T14:12:23.225Z,15.30
2023-01-08T14:14:54.651Z,15.30
2023-01-08T14:17:24.352Z,15.20
2023-01-08T14:19:52.779Z,15.00
2023-01-08T14:22:23.063Z,15.00
2023-01-08T14:24:55.511Z,15.00
2023-01-08T14:27:26.556Z,15.00
2023-01-08T14:29:55.459Z,15.10
2023-01-08T14:32:25.085Z,15.10
2023-01-08T14:34:54.268Z,15.00
2023-01-08T14:37:22.672Z,15.00
2023-01-08T14:39:54.378Z,15.10
2023-01-08T14:42:42.324Z,15.00
2023-01-08T14:45:16.100Z,15.10
2023-01-08T14:47:45.871Z,15.10
2023-01-08T14:50:19.344Z,15.10
2023-01-08T14:52:48.195Z,15.10
2023-01-08T14:55:18.773Z,15.10
2023-01-08T14:57:47.317Z,15.00
2023-01-08T15:00:19.844Z,14.90
2023-01-08T15:02:48.771Z,14.80
2023-01-08T15:05:18.831Z,14.70
2023-01-08T15:07:56.884Z,14.60
2023-01-08T15:10:35.232Z,14.60
2023-01-08T15:13:06.723Z,14.50
2023-01-08T15:15:38.766Z,14.40
2023-01-08T15:18:09.052Z,14.50
2023-01-08T15:20:37.512Z,14.30
2023-01-08T15:23:05.891Z,14.20
2023-01-08T15:25:34.372Z,14.20
2023-01-08T15:28:03.894Z,14.20
2023-01-08T15:30:35.882Z,14.10
2023-01-08T15:33:09.358Z,14.00
2023-01-08T15:35:37.766Z,13.80
2023-01-08T15:38:07.326Z,13.70
2023-01-08T15:40:35.763Z,13.80
2023-01-08T15:43:13.567Z,14.00
2023-01-08T15:45:42.635Z,14.10
2023-01-08T15:48:12.812Z,14.10
2023-01-08T15:50:41.949Z,13.90
2023-01-08T15:53:13.770Z,13.90
2023-01-08T15:55:43.651Z,14.00
2023-01-08T15:58:13.209Z,13.70
2023-01-08T16:00:42.050Z,13.60
2023-01-08T16:03:10.756Z,13.50
2023-01-08T16:05:40.681Z,13.50
2023-01-08T16:08:09.162Z,13.60
2023-01-08T16:10:38.311Z,13.50
2023-01-08T16:13:07.050Z,13.40
2023-01-08T16:15:35.518Z,13.30
2023-01-08T16:18:03.995Z,13.30
2023-01-08T16:20:32.331Z,13.40
2023-01-08T16:23:02.150Z,13.30
2023-01-08T16:25:31.523Z,13.40
2023-01-08T16:27:59.878Z,13.30
2023-01-08T16:30:28.268Z,13.40
2023-01-08T16:32:56.706Z,13.40
2023-01-08T16:35:25.267Z,13.40
2023-01-08T16:37:53.679Z,13.40
2023-01-08T16:40:23.417Z,13.50
2023-01-08T16:42:51.823Z,13.60
2023-01-08T16:45:22.291Z,13.60
2023-01-08T16:47:50.617Z,13.60
2023-01-08T16:50:18.968Z,13.50
2023-01-08T16:52:47.452Z,13.40
2023-01-08T16:55:15.853Z,13.40
2023-01-08T16:57:46.026Z,13.40
2023-01-08T17:00:14.755Z,13.30
2023-01-08T17:02:43.072Z,13.20
2023-01-08T17:05:11.844Z,13.10
2023-01-08T17:07:40.307Z,13.00
2023-01-08T17:10:09.295Z,12.90
2023-01-08T17:12:37.701Z,12.90
2023-01-08T17:15:08.316Z,12.90
2023-01-08T17:17:36.706Z,12.90
2023-01-08T17:20:05.458Z,13.00
2023-01-08T17:22:33.791Z,13.00
2023-01-08T17:25:02.200Z,13.00
2023-01-08T17:27:30.583Z,13.10
2023-01-08T17:29:58.934Z,13.10
2023-01-08T17:32:29.946Z,13.10
2023-01-08T17:34:58.361Z,13.10
2023-01-08T17:37:26.771Z,13.10
2023-01-08T17:39:55.039Z,13.10
2023-01-08T17:42:26.900Z,13.10
2023-01-08T17:44:57.089Z,13.10
2023-01-08T17:47:25.808Z,13.00
2023-01-08T17:49:56.172Z,13.10
2023-01-08T17:52:25.279Z,13.10
2023-01-08T17:54:53.782Z,13.20
2023-01-08T17:57:22.612Z,13.20
2023-01-08T17:59:50.978Z,13.30
2023-01-08T18:02:19.561Z,13.40
2023-01-08T18:04:48.510Z,13.40
2023-01-08T18:07:18.279Z,13.30
2023-01-08T18:09:46.701Z,13.30
2023-01-08T18:12:15.123Z,13.40
2023-01-08T18:14:44.217Z,13.40
2023-01-08T18:17:12.889Z,13.50
2023-01-08T18:19:41.722Z,13.50
2023-01-08T18:22:10.513Z,13.40
2023-01-08T18:24:40.207Z,13.40
2023-01-08T18:27:08.555Z,13.40
2023-01-08T18:29:36.994Z,13.50
2023-01-08T18:32:05.569Z,13.60
2023-01-08T18:34:33.957Z,13.60
2023-01-08T18:37:02.340Z,13.70
2023-01-08T18:39:31.028Z,13.70
2023-01-08T18:42:18.320Z,13.70
2023-01-08T18:44:46.759Z,13.60
2023-01-08T18:47:15.760Z,13.60
2023-01-08T18:49:44.079Z,13.60
2023-01-08T18:52:14.067Z,13.40
2023-01-08T18:54:42.537Z,13.40
2023-01-08T18:57:12.339Z,13.30
2023-01-08T18:59:41.462Z,13.40
2023-01-08T19:02:17.673Z,13.30
2023-01-08T19:04:46.123Z,13.40
2023-01-08T19:07:14.524Z,13.40
2023-01-08T19:09:42.950Z,13.30
2023-01-08T19:12:12.855Z,13.30
2023-01-08T19:14:41.184Z,13.30
2023-01-08T19:17:09.661Z,13.50
2023-01-08T19:19:38.221Z,13.60
2023-01-08T19:22:06.602Z,13.70
2023-01-08T19:24:36.993Z,13.70
2023-01-08T19:27:05.437Z,13.60
2023-01-08T19:29:35.419Z,13.70
2023-01-08T19:32:03.855Z,13.80
2023-01-08T19:34:32.320Z,13.90
2023-01-08T19:37:01.182Z,14.00
2023-01-08T19:39:29.929Z,14.10
2023-01-08T19:42:15.558Z,14.20
2023-01-08T19:44:45.492Z,14.20
2023-01-08T19:47:13.891Z,14.10
2023-01-08T19:49:47.595Z,14.20
2023-01-08T19:52:16.492Z,14.10
2023-01-08T19:54:44.864Z,14.00
2023-01-08T19:57:13.821Z,13.90
2023-01-08T19:59:42.301Z,13.90
2023-01-08T20:02:12.767Z,13.90
2023-01-08T20:04:42.961Z,14.00
2023-01-08T20:07:11.376Z,13.90
2023-01-08T20:09:39.855Z,13.80
2023-01-08T20:12:08.458Z,13.90
2023-01-08T20:14:36.860Z,13.90
2023-01-08T20:17:05.396Z,13.90
2023-01-08T20:19:35.148Z,13.90
2023-01-08T20:22:03.645Z,13.90
2023-01-08T20:24:32.063Z,14.00
2023-01-08T20:27:00.353Z,14.00
2023-01-08T20:29:29.016Z,14.00
2023-01-08T20:31:59.495Z,14.00
2023-01-08T20:34:28.323Z,13.90
2023-01-08T20:36:58.155Z,13.90
2023-01-08T20:39:26.825Z,13.90
2023-01-08T20:42:01.210Z,13.90
2023-01-08T20:44:32.418Z,13.90
2023-01-08T20:47:01.101Z,13.80
2023-01-08T20:49:29.737Z,13.80
2023-01-08T20:52:00.587Z,13.80
2023-01-08T20:54:29.420Z,13.70
2023-01-08T20:56:58.337Z,13.70
2023-01-08T20:59:27.263Z,13.70
2023-01-08T21:01:55.729Z,13.50
2023-01-08T21:04:24.524Z,13.70
2023-01-08T21:06:53.017Z,13.70
2023-01-08T21:09:22.788Z,13.50
2023-01-08T21:11:51.373Z,13.40
2023-01-08T21:14:19.777Z,13.30
2023-01-08T21:16:48.158Z,13.30
2023-01-08T21:19:16.816Z,13.20
2023-01-08T21:21:45.864Z,13.30
2023-01-08T21:24:14.320Z,13.30
2023-01-08T21:26:45.425Z,13.30
2023-01-08T21:29:13.875Z,13.20
2023-01-08T21:31:43.250Z,13.30
2023-01-08T21:34:11.909Z,13.30
2023-01-08T21:36:40.242Z,13.20
2023-01-08T21:39:08.693Z,13.20
2023-01-08T21:41:54.217Z,13.30
2023-01-08T21:44:42.086Z,13.30
2023-01-08T21:47:12.171Z,13.20
2023-01-08T21:49:43.387Z,13.10
2023-01-08T21:52:29.440Z,13.10
2023-01-08T21:54:58.239Z,13.20
2023-01-08T21:57:28.089Z,13.20
2023-01-08T21:59:58.113Z,13.20
2023-01-08T22:02:26.583Z,13.10
2023-01-08T22:04:55.745Z,13.20
2023-01-08T22:07:24.342Z,13.20
2023-01-08T22:09:52.771Z,13.20
2023-01-08T22:12:22.815Z,13.10
2023-01-08T22:14:52.932Z,13.10
2023-01-08T22:17:23.319Z,13.10
2023-01-08T22:19:53.670Z,13.10
2023-01-08T22:22:22.029Z,13.10
2023-01-08T22:24:51.411Z,13.00
2023-01-08T22:27:19.789Z,13.10
2023-01-08T22:29:48.256Z,13.10
2023-01-08T22:32:16.732Z,13.10
2023-01-08T22:34:46.577Z,13.10
2023-01-08T22:37:16.936Z,13.10
2023-01-08T22:39:46.383Z,13.10
2023-01-08T22:42:14.791Z,13.20
2023-01-08T22:44:43.210Z,13.30
2023-01-08T22:47:11.609Z,13.30
2023-01-08T22:49:40.033Z,13.20
2023-01-08T22:52:10.331Z,13.20
2023-01-08T22:54:38.728Z,13.30
2023-01-08T22:57:07.464Z,13.30
2023-01-08T22:59:35.931Z,13.20
2023-01-08T23:02:04.269Z,13.30
2023-01-08T23:04:32.757Z,13.30
2023-01-08T23:07:01.128Z,13.20
2023-01-08T23:09:30.942Z,13.20
2023-01-08T23:11:59.372Z,13.10
2023-01-08T23:14:27.749Z,13.10
2023-01-08T23:16:56.148Z,13.10
2023-01-08T23:19:24.548Z,13.20
2023-01-08T23:21:53.032Z,13.30
2023-01-08T23:24:21.361Z,13.30
2023-01-08T23:26:51.149Z,13.40
2023-01-08T23:29:19.534Z,13.30
2023-01-08T23:31:48.085Z,13.20
2023-01-08T23:34:16.573Z,13.10
2023-01-08T23:36:44.983Z,13.10
2023-01-08T23:39:13.377Z,13.10
2023-01-08T23:41:41.792Z,13.20
2023-01-08T23:44:12.403Z,13.30
2023-01-08T23:46:40.802Z,13.40
2023-01-08T23:49:10.101Z,13.50
2023-01-08T23:51:42.214Z,13.50
2023-01-08T23:54:10.836Z,13.50
2023-01-08T23:56:39.196Z,13.50
2023-01-08T23:59:08.001Z,13.50
